Arboga, California
Current Conditions -  °F | °C
As of 10:58 PM on Tuesday 25 Nov 2014 (Local Time) from KBAB Reporting Station
Clear Clear  
Wind Chill: 41°   Ceiling: Unl
Heat Index: 44°   Visibility: 10mi
Dew Point: 43°   Wind: 6mph
Humidity: 96%   Direction: 90°E
Pressure: 30.37"   Gusts: NA
Location:  39.0904°N, 121.552°W
Report Text: KBAB 260658Z AUTO 09005KT 10SM CLR 07/06 A3037 RMK AO2 SLP362 T00680062 $
Loading
Personal Weather Stations






























Interactive Weather Map New forecast layout! Learn more

10-Day Weather Forecast

Advertisements
Track Severe Weather on mobile